sensor_id;sensor_type;location;lat;lon;timestamp;temperature;humidity
27559;DHT22;15002;52.028;5.670;2023-11-21T00:00:26;11.20;99.90
27559;DHT22;15002;52.028;5.670;2023-11-21T00:02:51;11.10;99.90
27559;DHT22;15002;52.028;5.670;2023-11-21T00:05:17;10.90;99.90
27559;DHT22;15002;52.028;5.670;2023-11-21T00:07:43;10.80;99.90
27559;DHT22;15002;52.028;5.670;2023-11-21T00:10:09;10.60;99.90
27559;DHT22;15002;52.028;5.670;2023-11-21T00:12:36;10.70;99.90
27559;DHT22;15002;52.028;5.670;2023-11-21T00:15:02;10.70;99.90
27559;DHT22;15002;52.028;5.670;2023-11-21T00:17:28;10.60;99.90
27559;DHT22;15002;52.028;5.670;2023-11-21T00:19:53;10.70;99.90
27559;DHT22;15002;52.028;5.670;2023-11-21T00:22:19;10.70;99.90
27559;DHT22;15002;52.028;5.670;2023-11-21T00:24:46;10.60;99.90
27559;DHT22;15002;52.028;5.670;2023-11-21T00:27:11;10.60;99.90
27559;DHT22;15002;52.028;5.670;2023-11-21T00:29:37;10.60;99.90
27559;DHT22;15002;52.028;5.670;2023-11-21T00:32:04;10.60;99.90
27559;DHT22;15002;52.028;5.670;2023-11-21T00:34:31;10.50;99.90
27559;DHT22;15002;52.028;5.670;2023-11-21T00:36:56;10.50;99.90
27559;DHT22;15002;52.028;5.670;2023-11-21T00:39:22;10.50;99.90
27559;DHT22;15002;52.028;5.670;2023-11-21T00:41:48;10.40;99.90
27559;DHT22;15002;52.028;5.670;2023-11-21T00:44:14;10.40;99.90
27559;DHT22;15002;52.028;5.670;2023-11-21T00:46:39;10.40;99.90
27559;DHT22;15002;52.028;5.670;2023-11-21T00:49:05;10.30;99.90
27559;DHT22;15002;52.028;5.670;2023-11-21T00:51:31;10.40;99.90
27559;DHT22;15002;52.028;5.670;2023-11-21T00:53:57;10.40;99.90
27559;DHT22;15002;52.028;5.670;2023-11-21T00:56:23;10.30;99.90
27559;DHT22;15002;52.028;5.670;2023-11-21T00:58:49;10.30;99.90
27559;DHT22;15002;52.028;5.670;2023-11-21T01:01:18;10.30;99.90
27559;DHT22;15002;52.028;5.670;2023-11-21T01:03:46;10.30;99.90
27559;DHT22;15002;52.028;5.670;2023-11-21T01:06:12;10.20;99.90
27559;DHT22;15002;52.028;5.670;2023-11-21T01:08:37;10.20;99.90
27559;DHT22;15002;52.028;5.670;2023-11-21T01:11:04;10.20;99.90
27559;DHT22;15002;52.028;5.670;2023-11-21T01:13:30;10.30;99.90
27559;DHT22;15002;52.028;5.670;2023-11-21T01:15:56;10.30;99.90
27559;DHT22;15002;52.028;5.670;2023-11-21T01:18:21;10.20;99.90
27559;DHT22;15002;52.028;5.670;2023-11-21T01:20:47;10.20;99.90
27559;DHT22;15002;52.028;5.670;2023-11-21T01:23:16;10.20;99.90
27559;DHT22;15002;52.028;5.670;2023-11-21T01:25:41;10.30;99.90
27559;DHT22;15002;52.028;5.670;2023-11-21T01:28:07;10.30;99.90
27559;DHT22;15002;52.028;5.670;2023-11-21T01:30:32;10.30;99.90
27559;DHT22;15002;52.028;5.670;2023-11-21T01:32:59;10.40;99.90
27559;DHT22;15002;52.028;5.670;2023-11-21T01:35:24;10.50;99.90
27559;DHT22;15002;52.028;5.670;2023-11-21T01:37:50;10.60;99.90
27559;DHT22;15002;52.028;5.670;2023-11-21T01:40:16;10.80;99.90
27559;DHT22;15002;52.028;5.670;2023-11-21T01:42:42;10.90;99.90
27559;DHT22;15002;52.028;5.670;2023-11-21T01:45:13;10.80;99.90
27559;DHT22;15002;52.028;5.670;2023-11-21T01:47:38;10.80;99.90
27559;DHT22;15002;52.028;5.670;2023-11-21T01:50:07;10.90;99.90
27559;DHT22;15002;52.028;5.670;2023-11-21T01:52:34;10.80;99.90
27559;DHT22;15002;52.028;5.670;2023-11-21T01:55:01;10.70;99.90
27559;DHT22;15002;52.028;5.670;2023-11-21T01:57:27;10.80;99.90
27559;DHT22;15002;52.028;5.670;2023-11-21T01:59:54;10.80;99.90
27559;DHT22;15002;52.028;5.670;2023-11-21T02:02:20;10.60;99.90
27559;DHT22;15002;52.028;5.670;2023-11-21T02:04:45;10.40;99.90
27559;DHT22;15002;52.028;5.670;2023-11-21T02:07:11;10.40;99.90
27559;DHT22;15002;52.028;5.670;2023-11-21T02:09:37;10.30;99.90
27559;DHT22;15002;52.028;5.670;2023-11-21T02:12:08;10.20;99.90
27559;DHT22;15002;52.028;5.670;2023-11-21T02:14:36;10.30;99.90
27559;DHT22;15002;52.028;5.670;2023-11-21T02:17:02;10.30;99.90
27559;DHT22;15002;52.028;5.670;2023-11-21T02:19:29;10.30;99.90
27559;DHT22;15002;52.028;5.670;2023-11-21T02:21:57;10.30;99.90
27559;DHT22;15002;52.028;5.670;2023-11-21T02:24:29;10.30;99.90
27559;DHT22;15002;52.028;5.670;2023-11-21T02:26:54;10.30;99.90
27559;DHT22;15002;52.028;5.670;2023-11-21T02:29:21;10.20;99.90
27559;DHT22;15002;52.028;5.670;2023-11-21T02:31:48;10.10;99.90
27559;DHT22;15002;52.028;5.670;2023-11-21T02:34:15;10.20;99.90
27559;DHT22;15002;52.028;5.670;2023-11-21T02:36:41;10.30;99.90
27559;DHT22;15002;52.028;5.670;2023-11-21T02:39:08;10.40;99.90
27559;DHT22;15002;52.028;5.670;2023-11-21T02:41:34;10.30;99.90
27559;DHT22;15002;52.028;5.670;2023-11-21T02:44:00;10.30;99.90
27559;DHT22;15002;52.028;5.670;2023-11-21T02:46:26;10.60;99.90
27559;DHT22;15002;52.028;5.670;2023-11-21T02:48:52;10.70;99.90
27559;DHT22;15002;52.028;5.670;2023-11-21T02:51:20;10.60;99.90
27559;DHT22;15002;52.028;5.670;2023-11-21T02:53:45;10.50;99.90
27559;DHT22;15002;52.028;5.670;2023-11-21T02:56:12;10.40;99.90
27559;DHT22;15002;52.028;5.670;2023-11-21T02:58:41;10.50;99.90
27559;DHT22;15002;52.028;5.670;2023-11-21T03:01:07;10.40;99.90
27559;DHT22;15002;52.028;5.670;2023-11-21T03:03:33;10.50;99.90
27559;DHT22;15002;52.028;5.670;2023-11-21T03:05:59;10.60;99.90
27559;DHT22;15002;52.028;5.670;2023-11-21T03:08:24;10.70;99.90
27559;DHT22;15002;52.028;5.670;2023-11-21T03:10:50;10.60;99.90
27559;DHT22;15002;52.028;5.670;2023-11-21T03:13:16;10.70;99.90
27559;DHT22;15002;52.028;5.670;2023-11-21T03:15:41;10.60;99.90
27559;DHT22;15002;52.028;5.670;2023-11-21T03:18:08;10.50;99.90
27559;DHT22;15002;52.028;5.670;2023-11-21T03:20:33;10.50;99.90
27559;DHT22;15002;52.028;5.670;2023-11-21T03:23:00;10.60;99.90
27559;DHT22;15002;52.028;5.670;2023-11-21T03:25:26;10.70;99.90
27559;DHT22;15002;52.028;5.670;2023-11-21T03:27:51;10.60;99.90
27559;DHT22;15002;52.028;5.670;2023-11-21T03:30:17;10.60;99.90
27559;DHT22;15002;52.028;5.670;2023-11-21T03:32:43;10.70;99.90
27559;DHT22;15002;52.028;5.670;2023-11-21T03:35:08;10.80;99.90
27559;DHT22;15002;52.028;5.670;2023-11-21T03:37:35;10.90;99.90
27559;DHT22;15002;52.028;5.670;2023-11-21T03:40:00;10.90;99.90
27559;DHT22;15002;52.028;5.670;2023-11-21T03:42:26;10.90;99.90
27559;DHT22;15002;52.028;5.670;2023-11-21T03:44:52;10.80;99.90
27559;DHT22;15002;52.028;5.670;2023-11-21T03:47:18;10.90;99.90
27559;DHT22;15002;52.028;5.670;2023-11-21T03:49:44;11.00;99.90
27559;DHT22;15002;52.028;5.670;2023-11-21T03:52:11;11.10;99.90
27559;DHT22;15002;52.028;5.670;2023-11-21T03:54:37;11.00;99.90
27559;DHT22;15002;52.028;5.670;2023-11-21T03:57:03;11.00;99.90
27559;DHT22;15002;52.028;5.670;2023-11-21T03:59:29;10.90;99.90
27559;DHT22;15002;52.028;5.670;2023-11-21T04:01:57;11.10;99.90
27559;DHT22;15002;52.028;5.670;2023-11-21T04:04:23;11.20;99.90
27559;DHT22;15002;52.028;5.670;2023-11-21T04:06:49;11.30;99.90
27559;DHT22;15002;52.028;5.670;2023-11-21T04:09:14;11.10;99.90
27559;DHT22;15002;52.028;5.670;2023-11-21T04:11:40;11.20;99.90
27559;DHT22;15002;52.028;5.670;2023-11-21T04:14:06;11.20;99.90
27559;DHT22;15002;52.028;5.670;2023-11-21T04:16:32;11.00;99.90
27559;DHT22;15002;52.028;5.670;2023-11-21T04:18:57;11.10;99.90
27559;DHT22;15002;52.028;5.670;2023-11-21T04:21:23;11.00;99.90
27559;DHT22;15002;52.028;5.670;2023-11-21T04:23:49;11.00;99.90
27559;DHT22;15002;52.028;5.670;2023-11-21T04:26:15;10.90;99.90
27559;DHT22;15002;52.028;5.670;2023-11-21T04:28:41;11.00;99.90
27559;DHT22;15002;52.028;5.670;2023-11-21T04:31:07;11.00;99.90
27559;DHT22;15002;52.028;5.670;2023-11-21T04:33:32;11.00;99.90
27559;DHT22;15002;52.028;5.670;2023-11-21T04:35:58;11.00;99.90
27559;DHT22;15002;52.028;5.670;2023-11-21T04:38:24;11.00;99.90
27559;DHT22;15002;52.028;5.670;2023-11-21T04:40:49;11.10;99.90
27559;DHT22;15002;52.028;5.670;2023-11-21T04:43:15;11.00;99.90
27559;DHT22;15002;52.028;5.670;2023-11-21T04:45:41;11.00;99.90
27559;DHT22;15002;52.028;5.670;2023-11-21T04:48:07;11.10;99.90
27559;DHT22;15002;52.028;5.670;2023-11-21T04:50:34;11.20;99.90
27559;DHT22;15002;52.028;5.670;2023-11-21T04:52:59;11.30;99.90
27559;DHT22;15002;52.028;5.670;2023-11-21T04:55:25;11.40;99.90
27559;DHT22;15002;52.028;5.670;2023-11-21T04:57:53;11.30;99.90
27559;DHT22;15002;52.028;5.670;2023-11-21T05:00:19;11.30;99.90
27559;DHT22;15002;52.028;5.670;2023-11-21T05:02:47;11.30;99.90
27559;DHT22;15002;52.028;5.670;2023-11-21T05:05:13;11.30;99.90
27559;DHT22;15002;52.028;5.670;2023-11-21T05:07:40;11.30;99.90
27559;DHT22;15002;52.028;5.670;2023-11-21T05:10:07;11.30;99.90
27559;DHT22;15002;52.028;5.670;2023-11-21T05:12:41;11.30;99.90
27559;DHT22;15002;52.028;5.670;2023-11-21T05:15:07;11.40;99.90
27559;DHT22;15002;52.028;5.670;2023-11-21T05:17:37;11.40;99.90
27559;DHT22;15002;52.028;5.670;2023-11-21T05:20:03;11.30;99.90
27559;DHT22;15002;52.028;5.670;2023-11-21T05:22:30;11.40;99.90
27559;DHT22;15002;52.028;5.670;2023-11-21T05:24:55;11.50;99.90
27559;DHT22;15002;52.028;5.670;2023-11-21T05:27:21;11.50;99.90
27559;DHT22;15002;52.028;5.670;2023-11-21T05:29:47;11.60;99.90
27559;DHT22;15002;52.028;5.670;2023-11-21T05:32:12;11.50;99.90
27559;DHT22;15002;52.028;5.670;2023-11-21T05:34:38;11.40;99.90
27559;DHT22;15002;52.028;5.670;2023-11-21T05:37:04;11.30;99.90
27559;DHT22;15002;52.028;5.670;2023-11-21T05:39:30;11.30;99.90
27559;DHT22;15002;52.028;5.670;2023-11-21T05:41:57;11.30;99.90
27559;DHT22;15002;52.028;5.670;2023-11-21T05:44:23;11.30;99.90
27559;DHT22;15002;52.028;5.670;2023-11-21T05:46:50;11.30;99.90
27559;DHT22;15002;52.028;5.670;2023-11-21T05:49:16;11.30;99.90
27559;DHT22;15002;52.028;5.670;2023-11-21T05:51:42;11.40;99.90
27559;DHT22;15002;52.028;5.670;2023-11-21T05:54:07;11.40;99.90
27559;DHT22;15002;52.028;5.670;2023-11-21T05:56:33;11.40;99.90
27559;DHT22;15002;52.028;5.670;2023-11-21T05:58:59;11.30;99.90
27559;DHT22;15002;52.028;5.670;2023-11-21T06:01:25;11.40;99.90
27559;DHT22;15002;52.028;5.670;2023-11-21T06:03:54;11.40;99.90
27559;DHT22;15002;52.028;5.670;2023-11-21T06:06:20;11.40;99.90
27559;DHT22;15002;52.028;5.670;2023-11-21T06:08:48;11.40;99.90
27559;DHT22;15002;52.028;5.670;2023-11-21T06:11:14;11.40;99.90
27559;DHT22;15002;52.028;5.670;2023-11-21T06:13:41;11.40;99.90
27559;DHT22;15002;52.028;5.670;2023-11-21T06:16:07;11.50;99.90
27559;DHT22;15002;52.028;5.670;2023-11-21T06:18:33;11.50;99.90
27559;DHT22;15002;52.028;5.670;2023-11-21T06:20:58;11.50;99.90
27559;DHT22;15002;52.028;5.670;2023-11-21T06:23:26;11.40;99.90
27559;DHT22;15002;52.028;5.670;2023-11-21T06:25:52;11.40;99.90
27559;DHT22;15002;52.028;5.670;2023-11-21T06:28:18;11.50;99.90
27559;DHT22;15002;52.028;5.670;2023-11-21T06:30:44;11.40;99.90
27559;DHT22;15002;52.028;5.670;2023-11-21T06:33:14;11.50;99.90
27559;DHT22;15002;52.028;5.670;2023-11-21T06:35:40;11.50;99.90
27559;DHT22;15002;52.028;5.670;2023-11-21T06:38:05;11.50;99.90
27559;DHT22;15002;52.028;5.670;2023-11-21T06:40:31;11.50;99.90
27559;DHT22;15002;52.028;5.670;2023-11-21T06:42:59;11.50;99.90
27559;DHT22;15002;52.028;5.670;2023-11-21T06:45:24;11.50;99.90
27559;DHT22;15002;52.028;5.670;2023-11-21T06:47:50;11.60;99.90
27559;DHT22;15002;52.028;5.670;2023-11-21T06:50:16;11.60;99.90
27559;DHT22;15002;52.028;5.670;2023-11-21T06:52:42;11.50;99.90
27559;DHT22;15002;52.028;5.670;2023-11-21T06:55:08;11.50;99.90
27559;DHT22;15002;52.028;5.670;2023-11-21T06:57:35;11.50;99.90
27559;DHT22;15002;52.028;5.670;2023-11-21T07:00:01;11.60;99.90
27559;DHT22;15002;52.028;5.670;2023-11-21T07:02:27;11.60;99.90
27559;DHT22;15002;52.028;5.670;2023-11-21T07:04:53;11.60;99.90
27559;DHT22;15002;52.028;5.670;2023-11-21T07:07:19;11.60;99.90
27559;DHT22;15002;52.028;5.670;2023-11-21T07:09:45;11.70;99.90
27559;DHT22;15002;52.028;5.670;2023-11-21T07:12:10;11.80;99.90
27559;DHT22;15002;52.028;5.670;2023-11-21T07:14:36;11.90;99.90
27559;DHT22;15002;52.028;5.670;2023-11-21T07:17:04;11.80;99.90
27559;DHT22;15002;52.028;5.670;2023-11-21T07:19:30;11.90;99.90
27559;DHT22;15002;52.028;5.670;2023-11-21T07:21:56;11.90;99.90
27559;DHT22;15002;52.028;5.670;2023-11-21T07:24:22;12.10;99.90
27559;DHT22;15002;52.028;5.670;2023-11-21T07:26:48;12.20;99.90
27559;DHT22;15002;52.028;5.670;2023-11-21T07:29:14;12.20;99.90
27559;DHT22;15002;52.028;5.670;2023-11-21T07:31:39;12.10;99.90
27559;DHT22;15002;52.028;5.670;2023-11-21T07:34:06;11.90;99.90
27559;DHT22;15002;52.028;5.670;2023-11-21T07:36:33;11.90;99.90
27559;DHT22;15002;52.028;5.670;2023-11-21T07:38:59;12.00;99.90
27559;DHT22;15002;52.028;5.670;2023-11-21T07:41:24;11.90;99.90
27559;DHT22;15002;52.028;5.670;2023-11-21T07:43:50;12.00;99.90
27559;DHT22;15002;52.028;5.670;2023-11-21T07:46:16;12.00;99.90
27559;DHT22;15002;52.028;5.670;2023-11-21T07:48:42;12.00;99.90
27559;DHT22;15002;52.028;5.670;2023-11-21T07:51:09;12.10;99.90
27559;DHT22;15002;52.028;5.670;2023-11-21T07:53:35;12.10;99.90
27559;DHT22;15002;52.028;5.670;2023-11-21T07:56:08;12.10;99.90
27559;DHT22;15002;52.028;5.670;2023-11-21T07:58:37;12.10;99.90
27559;DHT22;15002;52.028;5.670;2023-11-21T08:01:03;12.00;99.90
27559;DHT22;15002;52.028;5.670;2023-11-21T08:03:30;12.00;99.90
27559;DHT22;15002;52.028;5.670;2023-11-21T08:05:59;11.90;99.90
27559;DHT22;15002;52.028;5.670;2023-11-21T08:08:25;12.00;99.90
27559;DHT22;15002;52.028;5.670;2023-11-21T08:10:51;12.10;99.90
27559;DHT22;15002;52.028;5.670;2023-11-21T08:13:25;12.00;99.90
27559;DHT22;15002;52.028;5.670;2023-11-21T08:15:54;12.00;99.90
27559;DHT22;15002;52.028;5.670;2023-11-21T08:18:21;12.00;99.90
27559;DHT22;15002;52.028;5.670;2023-11-21T08:20:47;12.00;99.90
27559;DHT22;15002;52.028;5.670;2023-11-21T08:23:16;12.00;99.90
27559;DHT22;15002;52.028;5.670;2023-11-21T08:25:45;12.00;99.90
27559;DHT22;15002;52.028;5.670;2023-11-21T08:28:11;12.20;99.90
27559;DHT22;15002;52.028;5.670;2023-11-21T08:30:37;12.20;99.90
27559;DHT22;15002;52.028;5.670;2023-11-21T08:33:02;12.40;99.90
27559;DHT22;15002;52.028;5.670;2023-11-21T08:35:29;12.20;99.90
27559;DHT22;15002;52.028;5.670;2023-11-21T08:37:55;12.40;99.90
27559;DHT22;15002;52.028;5.670;2023-11-21T08:40:21;12.60;99.90
27559;DHT22;15002;52.028;5.670;2023-11-21T08:42:47;12.60;99.90
27559;DHT22;15002;52.028;5.670;2023-11-21T08:45:14;12.50;99.90
27559;DHT22;15002;52.028;5.670;2023-11-21T08:47:40;12.40;99.90
27559;DHT22;15002;52.028;5.670;2023-11-21T08:50:06;12.50;99.90
27559;DHT22;15002;52.028;5.670;2023-11-21T08:52:34;12.50;99.90
27559;DHT22;15002;52.028;5.670;2023-11-21T08:54:59;12.40;99.90
27559;DHT22;15002;52.028;5.670;2023-11-21T08:57:28;12.40;99.90
27559;DHT22;15002;52.028;5.670;2023-11-21T08:59:55;12.30;99.90
27559;DHT22;15002;52.028;5.670;2023-11-21T09:02:26;12.30;99.90
27559;DHT22;15002;52.028;5.670;2023-11-21T09:04:51;12.30;99.90
27559;DHT22;15002;52.028;5.670;2023-11-21T09:07:19;12.40;99.90
27559;DHT22;15002;52.028;5.670;2023-11-21T09:09:46;12.40;99.90
27559;DHT22;15002;52.028;5.670;2023-11-21T09:12:13;12.30;99.90
27559;DHT22;15002;52.028;5.670;2023-11-21T09:14:38;12.30;99.90
27559;DHT22;15002;52.028;5.670;2023-11-21T09:17:05;12.30;99.90
27559;DHT22;15002;52.028;5.670;2023-11-21T09:19:36;12.50;99.90
27559;DHT22;15002;52.028;5.670;2023-11-21T09:22:02;12.60;99.90
27559;DHT22;15002;52.028;5.670;2023-11-21T09:24:28;12.50;99.90
27559;DHT22;15002;52.028;5.670;2023-11-21T09:26:53;12.40;99.90
27559;DHT22;15002;52.028;5.670;2023-11-21T09:29:19;12.70;99.90
27559;DHT22;15002;52.028;5.670;2023-11-21T09:31:45;12.70;99.90
27559;DHT22;15002;52.028;5.670;2023-11-21T09:34:11;12.90;99.90
27559;DHT22;15002;52.028;5.670;2023-11-21T09:36:37;12.90;99.90
27559;DHT22;15002;52.028;5.670;2023-11-21T09:39:04;12.80;99.90
27559;DHT22;15002;52.028;5.670;2023-11-21T09:41:50;12.80;99.90
27559;DHT22;15002;52.028;5.670;2023-11-21T09:44:18;13.00;99.90
27559;DHT22;15002;52.028;5.670;2023-11-21T09:46:47;13.10;99.90
27559;DHT22;15002;52.028;5.670;2023-11-21T09:49:18;13.00;99.90
27559;DHT22;15002;52.028;5.670;2023-11-21T09:51:53;13.00;99.90
27559;DHT22;15002;52.028;5.670;2023-11-21T09:54:19;12.80;99.90
27559;DHT22;15002;52.028;5.670;2023-11-21T09:56:47;12.70;99.90
27559;DHT22;15002;52.028;5.670;2023-11-21T09:59:15;12.90;99.90
27559;DHT22;15002;52.028;5.670;2023-11-21T10:01:41;13.40;99.90
27559;DHT22;15002;52.028;5.670;2023-11-21T10:04:08;13.20;99.90
27559;DHT22;15002;52.028;5.670;2023-11-21T10:06:41;13.00;99.90
27559;DHT22;15002;52.028;5.670;2023-11-21T10:09:10;12.80;99.90
27559;DHT22;15002;52.028;5.670;2023-11-21T10:11:43;12.90;99.90
27559;DHT22;15002;52.028;5.670;2023-11-21T10:14:12;13.10;99.90
27559;DHT22;15002;52.028;5.670;2023-11-21T10:16:40;13.00;99.90
27559;DHT22;15002;52.028;5.670;2023-11-21T10:19:09;12.80;99.90
27559;DHT22;15002;52.028;5.670;2023-11-21T10:21:36;12.90;99.90
27559;DHT22;15002;52.028;5.670;2023-11-21T10:24:02;12.90;99.90
27559;DHT22;15002;52.028;5.670;2023-11-21T10:26:28;12.90;99.90
27559;DHT22;15002;52.028;5.670;2023-11-21T10:29:02;12.60;99.90
27559;DHT22;15002;52.028;5.670;2023-11-21T10:31:32;12.60;99.90
27559;DHT22;15002;52.028;5.670;2023-11-21T10:34:14;12.80;99.90
27559;DHT22;15002;52.028;5.670;2023-11-21T10:36:40;12.70;99.90
27559;DHT22;15002;52.028;5.670;2023-11-21T10:39:06;12.50;99.90
27559;DHT22;15002;52.028;5.670;2023-11-21T10:41:32;12.50;99.90
27559;DHT22;15002;52.028;5.670;2023-11-21T10:43:58;12.70;99.90
27559;DHT22;15002;52.028;5.670;2023-11-21T10:46:24;12.80;99.90
27559;DHT22;15002;52.028;5.670;2023-11-21T10:48:54;12.80;99.90
27559;DHT22;15002;52.028;5.670;2023-11-21T10:51:21;12.90;99.90
27559;DHT22;15002;52.028;5.670;2023-11-21T10:53:47;13.00;99.90
27559;DHT22;15002;52.028;5.670;2023-11-21T10:56:18;12.80;99.90
27559;DHT22;15002;52.028;5.670;2023-11-21T10:58:46;12.80;99.90
27559;DHT22;15002;52.028;5.670;2023-11-21T11:01:11;12.80;99.90
27559;DHT22;15002;52.028;5.670;2023-11-21T11:03:39;12.70;99.90
27559;DHT22;15002;52.028;5.670;2023-11-21T11:06:06;12.30;99.90
27559;DHT22;15002;52.028;5.670;2023-11-21T11:08:40;12.30;99.90
27559;DHT22;15002;52.028;5.670;2023-11-21T11:11:06;12.30;99.90
27559;DHT22;15002;52.028;5.670;2023-11-21T11:13:32;12.60;99.90
27559;DHT22;15002;52.028;5.670;2023-11-21T11:15:59;12.70;99.90
27559;DHT22;15002;52.028;5.670;2023-11-21T11:18:29;12.70;99.90
27559;DHT22;15002;52.028;5.670;2023-11-21T11:24:05;12.60;99.90
27559;DHT22;15002;52.028;5.670;2023-11-21T11:26:42;12.50;99.90
27559;DHT22;15002;52.028;5.670;2023-11-21T11:29:39;12.40;99.90
27559;DHT22;15002;52.028;5.670;2023-11-21T11:35:01;12.50;99.90
27559;DHT22;15002;52.028;5.670;2023-11-21T11:37:29;12.30;99.90
27559;DHT22;15002;52.028;5.670;2023-11-21T11:39:55;12.00;99.90
27559;DHT22;15002;52.028;5.670;2023-11-21T11:42:22;12.30;99.90
27559;DHT22;15002;52.028;5.670;2023-11-21T11:44:50;12.30;99.90
27559;DHT22;15002;52.028;5.670;2023-11-21T11:47:29;12.60;99.90
27559;DHT22;15002;52.028;5.670;2023-11-21T11:52:44;12.70;99.90
27559;DHT22;15002;52.028;5.670;2023-11-21T11:55:12;12.60;99.90
27559;DHT22;15002;52.028;5.670;2023-11-21T11:57:39;12.50;99.90
27559;DHT22;15002;52.028;5.670;2023-11-21T12:00:21;12.80;99.90
27559;DHT22;15002;52.028;5.670;2023-11-21T12:03:10;12.80;99.90
27559;DHT22;15002;52.028;5.670;2023-11-21T12:05:36;12.50;99.90
27559;DHT22;15002;52.028;5.670;2023-11-21T12:08:05;12.60;99.90
27559;DHT22;15002;52.028;5.670;2023-11-21T12:10:33;12.30;99.90
27559;DHT22;15002;52.028;5.670;2023-11-21T12:13:07;12.80;99.90
27559;DHT22;15002;52.028;5.670;2023-11-21T12:15:33;12.60;99.90
27559;DHT22;15002;52.028;5.670;2023-11-21T12:18:00;12.50;99.90
27559;DHT22;15002;52.028;5.670;2023-11-21T12:20:27;12.30;99.90
27559;DHT22;15002;52.028;5.670;2023-11-21T12:22:57;12.30;99.90
27559;DHT22;15002;52.028;5.670;2023-11-21T12:25:28;12.40;99.90
27559;DHT22;15002;52.028;5.670;2023-11-21T12:27:55;12.40;99.90
27559;DHT22;15002;52.028;5.670;2023-11-21T12:30:22;12.40;99.90
27559;DHT22;15002;52.028;5.670;2023-11-21T12:32:53;12.50;99.90
27559;DHT22;15002;52.028;5.670;2023-11-21T12:35:20;12.60;99.90
27559;DHT22;15002;52.028;5.670;2023-11-21T12:37:47;12.30;99.90
27559;DHT22;15002;52.028;5.670;2023-11-21T12:40:14;12.10;99.90
27559;DHT22;15002;52.028;5.670;2023-11-21T12:42:46;12.10;99.90
27559;DHT22;15002;52.028;5.670;2023-11-21T12:47:50;12.20;99.90
27559;DHT22;15002;52.028;5.670;2023-11-21T12:50:19;12.10;99.90
27559;DHT22;15002;52.028;5.670;2023-11-21T12:52:50;11.90;99.90
27559;DHT22;15002;52.028;5.670;2023-11-21T12:55:22;11.90;99.90
27559;DHT22;15002;52.028;5.670;2023-11-21T12:57:55;12.00;99.90
27559;DHT22;15002;52.028;5.670;2023-11-21T13:00:45;12.20;99.90
27559;DHT22;15002;52.028;5.670;2023-11-21T13:03:12;12.20;99.90
27559;DHT22;15002;52.028;5.670;2023-11-21T13:05:42;12.30;99.90
27559;DHT22;15002;52.028;5.670;2023-11-21T13:08:11;12.40;99.90
27559;DHT22;15002;52.028;5.670;2023-11-21T13:10:43;12.50;99.90
27559;DHT22;15002;52.028;5.670;2023-11-21T13:13:11;12.60;99.90
27559;DHT22;15002;52.028;5.670;2023-11-21T13:15:49;12.80;99.90
27559;DHT22;15002;52.028;5.670;2023-11-21T13:18:15;12.60;99.90
27559;DHT22;15002;52.028;5.670;2023-11-21T13:20:42;12.60;99.90
27559;DHT22;15002;52.028;5.670;2023-11-21T13:23:12;12.60;99.90
27559;DHT22;15002;52.028;5.670;2023-11-21T13:25:38;12.90;99.90
27559;DHT22;15002;52.028;5.670;2023-11-21T13:28:07;12.90;99.90
27559;DHT22;15002;52.028;5.670;2023-11-21T13:30:33;12.80;99.90
27559;DHT22;15002;52.028;5.670;2023-11-21T13:33:08;12.40;99.90
27559;DHT22;15002;52.028;5.670;2023-11-21T13:35:36;12.30;99.90
27559;DHT22;15002;52.028;5.670;2023-11-21T13:38:15;12.50;99.90
27559;DHT22;15002;52.028;5.670;2023-11-21T13:40:50;12.60;99.90
27559;DHT22;15002;52.028;5.670;2023-11-21T13:43:20;12.60;99.90
27559;DHT22;15002;52.028;5.670;2023-11-21T13:45:48;12.70;99.90
27559;DHT22;15002;52.028;5.670;2023-11-21T13:48:24;12.80;99.90
27559;DHT22;15002;52.028;5.670;2023-11-21T13:51:13;13.10;99.90
27559;DHT22;15002;52.028;5.670;2023-11-21T13:53:43;13.20;99.90
27559;DHT22;15002;52.028;5.670;2023-11-21T13:56:09;12.90;99.90
27559;DHT22;15002;52.028;5.670;2023-11-21T13:58:35;13.00;99.90
27559;DHT22;15002;52.028;5.670;2023-11-21T14:01:12;13.00;99.90
27559;DHT22;15002;52.028;5.670;2023-11-21T14:03:56;13.20;99.90
27559;DHT22;15002;52.028;5.670;2023-11-21T14:06:27;12.90;99.90
27559;DHT22;15002;52.028;5.670;2023-11-21T14:09:00;12.70;99.90
27559;DHT22;15002;52.028;5.670;2023-11-21T14:11:32;12.20;99.90
27559;DHT22;15002;52.028;5.670;2023-11-21T14:13:59;12.10;99.90
27559;DHT22;15002;52.028;5.670;2023-11-21T14:16:25;12.00;99.90
27559;DHT22;15002;52.028;5.670;2023-11-21T14:18:51;12.00;99.90
27559;DHT22;15002;52.028;5.670;2023-11-21T14:21:24;11.60;99.90
27559;DHT22;15002;52.028;5.670;2023-11-21T14:23:49;11.60;99.90
27559;DHT22;15002;52.028;5.670;2023-11-21T14:26:15;11.90;99.90
27559;DHT22;15002;52.028;5.670;2023-11-21T14:28:42;12.00;99.90
27559;DHT22;15002;52.028;5.670;2023-11-21T14:31:08;12.00;99.90
27559;DHT22;15002;52.028;5.670;2023-11-21T14:33:39;12.00;99.90
27559;DHT22;15002;52.028;5.670;2023-11-21T14:36:05;12.10;99.90
27559;DHT22;15002;52.028;5.670;2023-11-21T14:38:33;12.10;99.90
27559;DHT22;15002;52.028;5.670;2023-11-21T14:40:59;11.70;99.90
27559;DHT22;15002;52.028;5.670;2023-11-21T14:43:24;11.80;99.90
27559;DHT22;15002;52.028;5.670;2023-11-21T14:45:51;11.80;99.90
27559;DHT22;15002;52.028;5.670;2023-11-21T14:48:17;11.60;99.90
27559;DHT22;15002;52.028;5.670;2023-11-21T14:50:54;11.30;99.90
27559;DHT22;15002;52.028;5.670;2023-11-21T14:53:28;11.40;99.90
27559;DHT22;15002;52.028;5.670;2023-11-21T14:56:09;11.30;99.90
27559;DHT22;15002;52.028;5.670;2023-11-21T14:58:36;11.50;99.90
27559;DHT22;15002;52.028;5.670;2023-11-21T15:01:04;11.60;99.90
27559;DHT22;15002;52.028;5.670;2023-11-21T15:03:30;12.00;99.90
27559;DHT22;15002;52.028;5.670;2023-11-21T15:05:59;12.10;99.90
27559;DHT22;15002;52.028;5.670;2023-11-21T15:08:42;11.90;99.90
27559;DHT22;15002;52.028;5.670;2023-11-21T15:11:08;11.50;99.90
27559;DHT22;15002;52.028;5.670;2023-11-21T15:13:39;11.40;99.90
27559;DHT22;15002;52.028;5.670;2023-11-21T15:16:07;11.20;99.90
27559;DHT22;15002;52.028;5.670;2023-11-21T15:18:34;11.10;99.90
27559;DHT22;15002;52.028;5.670;2023-11-21T15:21:01;11.20;99.90
27559;DHT22;15002;52.028;5.670;2023-11-21T15:23:28;10.90;99.90
27559;DHT22;15002;52.028;5.670;2023-11-21T15:25:56;10.80;99.90
27559;DHT22;15002;52.028;5.670;2023-11-21T15:28:22;10.80;99.90
27559;DHT22;15002;52.028;5.670;2023-11-21T15:30:50;10.80;99.90
27559;DHT22;15002;52.028;5.670;2023-11-21T15:33:17;10.90;99.90
27559;DHT22;15002;52.028;5.670;2023-11-21T15:35:43;10.80;99.90
27559;DHT22;15002;52.028;5.670;2023-11-21T15:38:08;10.60;99.90
27559;DHT22;15002;52.028;5.670;2023-11-21T15:40:34;10.50;99.90
27559;DHT22;15002;52.028;5.670;2023-11-21T15:43:00;10.50;99.90